Time;durP1;ratioP1;P1;durP2;ratioP2;P2;SDS_P1;SDS_P2;PMS_P1;PMS_P2;Temp;Humidity;BMP_temperature;BMP_pressure;BME280_temperature;BME280_humidity;BME280_pressure;Samples;Min_cycle;Max_cycle;Signal;HPM_P1;HPM_P2
2023/04/16 00:00:06;;;;;;;18.95;9.50;;;8.30;99.90;;;;;;5033598;28;20052;-56
2023/04/16 00:02:32;;;;;;;24.80;10.30;;;8.40;99.90;;;;;;5037414;28;20524;-56
2023/04/16 00:04:58;;;;;;;24.00;10.00;;;8.30;99.90;;;;;;5034339;28;20047;-56
2023/04/16 00:07:24;;;;;;;20.10;10.23;;;8.30;99.90;;;;;;5035236;28;20767;-56
2023/04/16 00:09:49;;;;;;;21.65;9.80;;;8.50;99.90;;;;;;5042373;28;20082;-56
2023/04/16 00:12:15;;;;;;;20.88;10.20;;;8.30;99.90;;;;;;5033875;28;20055;-56
2023/04/16 00:14:42;;;;;;;24.85;10.02;;;8.40;99.90;;;;;;5031779;28;20052;-56
2023/04/16 00:17:08;;;;;;;18.48;10.35;;;8.40;99.90;;;;;;5034210;28;20715;-56
2023/04/16 00:19:34;;;;;;;19.98;9.30;;;8.30;99.90;;;;;;5031929;28;20045;-56
2023/04/16 00:22:00;;;;;;;24.80;10.32;;;8.30;99.90;;;;;;5034979;28;20048;-56
2023/04/16 00:24:25;;;;;;;28.48;10.75;;;8.40;99.90;;;;;;5031355;28;20048;-56
2023/04/16 00:26:51;;;;;;;17.88;10.07;;;8.30;99.90;;;;;;5032740;28;20041;-56
2023/04/16 00:29:16;;;;;;;22.60;10.02;;;8.30;99.90;;;;;;5036954;28;20048;-56
2023/04/16 00:31:42;;;;;;;24.40;10.57;;;8.40;99.90;;;;;;5050321;28;20041;-56
2023/04/16 00:34:07;;;;;;;21.63;10.52;;;8.50;99.90;;;;;;5032458;28;20222;-55
2023/04/16 00:36:33;;;;;;;21.83;9.75;;;8.60;99.90;;;;;;5033339;28;20037;-56
2023/04/16 00:38:59;;;;;;;19.85;10.48;;;8.60;99.90;;;;;;5034825;28;20029;-56
2023/04/16 00:41:25;;;;;;;23.45;10.45;;;8.50;99.90;;;;;;5033437;28;20060;-56
2023/04/16 00:43:51;;;;;;;21.60;10.10;;;8.40;99.90;;;;;;5034167;28;20095;-56
2023/04/16 00:46:18;;;;;;;20.08;9.70;;;8.40;99.90;;;;;;5031381;28;20903;-56
2023/04/16 00:48:44;;;;;;;24.48;10.98;;;8.40;99.90;;;;;;5035820;28;20102;-56
2023/04/16 00:51:10;;;;;;;26.02;10.45;;;8.30;99.90;;;;;;5033888;28;20073;-56
2023/04/16 00:53:36;;;;;;;16.20;9.77;;;8.30;99.90;;;;;;5036705;28;20131;-56
2023/04/16 00:56:04;;;;;;;25.38;10.25;;;8.30;99.90;;;;;;5033312;28;20360;-56
2023/04/16 00:58:30;;;;;;;20.02;10.88;;;8.30;99.90;;;;;;5033162;28;20037;-55
2023/04/16 01:00:56;;;;;;;25.13;11.82;;;8.20;99.90;;;;;;5034074;28;20517;-56
2023/04/16 01:03:22;;;;;;;23.90;11.38;;;8.30;99.90;;;;;;5029082;28;20067;-56
2023/04/16 01:05:48;;;;;;;21.35;11.77;;;8.30;99.90;;;;;;5032212;28;20040;-56
2023/04/16 01:08:20;;;;;;;29.13;12.30;;;8.30;99.90;;;;;;5031816;28;20037;-56
2023/04/16 01:10:45;;;;;;;23.45;12.13;;;8.30;99.90;;;;;;5037490;28;20059;-56
2023/04/16 01:13:11;;;;;;;28.50;12.77;;;8.50;99.90;;;;;;5031892;28;20060;-56
2023/04/16 01:15:37;;;;;;;23.38;12.25;;;8.50;99.90;;;;;;5033034;28;20507;-56
2023/04/16 01:18:12;;;;;;;25.20;12.70;;;8.40;99.90;;;;;;5033490;28;20120;-56
2023/04/16 01:20:38;;;;;;;27.35;13.68;;;8.40;99.90;;;;;;5033174;28;20080;-56
2023/04/16 01:23:03;;;;;;;31.92;13.20;;;8.30;99.90;;;;;;5035342;28;20369;-56
2023/04/16 01:25:29;;;;;;;29.45;13.73;;;8.40;99.90;;;;;;5031730;28;20056;-56
2023/04/16 01:27:56;;;;;;;27.33;12.30;;;8.40;99.90;;;;;;5035311;28;20059;-56
2023/04/16 01:30:21;;;;;;;31.73;14.07;;;8.30;99.90;;;;;;5030925;28;20132;-56
2023/04/16 01:32:47;;;;;;;36.83;14.73;;;8.20;99.90;;;;;;5033446;28;20200;-56
2023/04/16 01:35:13;;;;;;;29.42;14.35;;;8.30;99.90;;;;;;5031513;28;20057;-55
2023/04/16 01:37:38;;;;;;;28.75;14.85;;;8.30;99.90;;;;;;5031250;28;20025;-56
2023/04/16 01:40:04;;;;;;;25.88;13.90;;;8.30;99.90;;;;;;5049119;28;20124;-56
2023/04/16 01:42:30;;;;;;;31.38;14.48;;;8.30;99.90;;;;;;5034649;28;20693;-56
2023/04/16 01:44:56;;;;;;;35.28;14.75;;;8.30;99.90;;;;;;5032780;28;20037;-56
2023/04/16 01:47:21;;;;;;;28.92;15.00;;;8.30;99.90;;;;;;5030833;28;20290;-56
2023/04/16 01:49:47;;;;;;;29.70;14.48;;;8.40;99.90;;;;;;5031701;28;20120;-56
2023/04/16 01:52:13;;;;;;;26.63;13.60;;;8.40;99.90;;;;;;5031011;28;20041;-56
2023/04/16 01:54:38;;;;;;;26.17;13.43;;;8.40;99.90;;;;;;5032421;28;20387;-56
2023/04/16 01:57:04;;;;;;;30.65;14.57;;;8.40;99.90;;;;;;5032756;28;20048;-56
2023/04/16 01:59:30;;;;;;;29.85;14.50;;;8.40;99.90;;;;;;5033223;28;20049;-56
2023/04/16 02:01:56;;;;;;;25.70;13.68;;;8.40;99.90;;;;;;5036336;28;20041;-56
2023/04/16 02:04:21;;;;;;;31.73;15.35;;;8.20;99.90;;;;;;5034522;28;20559;-55
2023/04/16 02:06:47;;;;;;;31.88;15.90;;;8.30;99.90;;;;;;5036652;28;20036;-56
2023/04/16 02:09:12;;;;;;;36.55;15.80;;;8.40;99.90;;;;;;5034530;28;20519;-56
2023/04/16 02:11:38;;;;;;;34.03;17.13;;;8.30;99.90;;;;;;5035875;28;20055;-56
2023/04/16 02:14:04;;;;;;;36.38;16.40;;;8.30;99.90;;;;;;5037496;28;20550;-56
2023/04/16 02:16:29;;;;;;;32.78;15.45;;;8.40;99.90;;;;;;5032904;28;20057;-56
2023/04/16 02:18:55;;;;;;;36.15;17.10;;;8.50;99.90;;;;;;5036573;28;20040;-56
2023/04/16 02:21:21;;;;;;;33.15;16.50;;;8.50;99.90;;;;;;5034914;28;21851;-56
2023/04/16 02:23:50;;;;;;;33.22;16.02;;;8.60;99.90;;;;;;5039091;28;20070;-56
2023/04/16 02:26:16;;;;;;;31.75;16.13;;;8.60;99.90;;;;;;5034963;28;20053;-56
2023/04/16 02:28:41;;;;;;;32.03;16.27;;;8.40;99.90;;;;;;5035678;28;20052;-56
2023/04/16 02:31:07;;;;;;;37.75;16.50;;;8.40;99.90;;;;;;5038282;28;20036;-56
2023/04/16 02:33:32;;;;;;;36.42;19.02;;;8.30;99.90;;;;;;5038371;28;20060;-55
2023/04/16 02:35:58;;;;;;;44.03;18.50;;;8.30;99.90;;;;;;5035803;28;20042;-56
2023/04/16 02:38:24;;;;;;;39.47;18.48;;;8.30;99.90;;;;;;5042082;28;20854;-56
2023/04/16 02:40:49;;;;;;;37.35;18.67;;;8.30;99.90;;;;;;5038040;28;20033;-56
2023/04/16 02:43:15;;;;;;;37.35;18.60;;;8.30;99.90;;;;;;5041400;28;20126;-56
2023/04/16 02:45:40;;;;;;;41.65;19.25;;;8.30;99.90;;;;;;5028072;28;20072;-56
2023/04/16 02:48:07;;;;;;;38.88;18.63;;;8.30;99.90;;;;;;5035047;28;20044;-56
2023/04/16 02:50:33;;;;;;;37.35;18.38;;;8.30;99.90;;;;;;5035534;28;20071;-56
2023/04/16 02:52:59;;;;;;;36.47;19.20;;;8.40;99.90;;;;;;5035364;28;20464;-56
2023/04/16 02:55:24;;;;;;;38.50;18.35;;;8.50;99.90;;;;;;5034182;28;20044;-56
2023/04/16 02:57:51;;;;;;;35.25;18.35;;;8.50;99.90;;;;;;5037560;28;20098;-56
2023/04/16 03:00:17;;;;;;;42.72;20.17;;;8.60;99.90;;;;;;5033923;28;20140;-56
2023/04/16 03:02:43;;;;;;;44.85;20.20;;;8.40;99.90;;;;;;5033787;28;20116;-56
2023/04/16 03:05:09;;;;;;;33.58;18.13;;;8.40;99.90;;;;;;5036121;28;20029;-56
2023/04/16 03:07:34;;;;;;;37.03;18.38;;;8.40;99.90;;;;;;5032668;28;20075;-56
2023/04/16 03:10:00;;;;;;;40.85;19.75;;;8.40;99.90;;;;;;5036901;28;20067;-56
2023/04/16 03:12:26;;;;;;;36.33;18.90;;;8.30;99.90;;;;;;5033155;28;20043;-56
2023/04/16 03:14:51;;;;;;;36.17;19.23;;;8.30;99.90;;;;;;5034368;28;20523;-56
2023/04/16 03:17:17;;;;;;;34.90;18.63;;;8.20;99.90;;;;;;5036155;28;20045;-56
2023/04/16 03:19:42;;;;;;;35.25;19.50;;;8.20;99.90;;;;;;5037124;28;20048;-55
2023/04/16 03:22:08;;;;;;;37.70;20.23;;;8.30;99.90;;;;;;5034464;28;20646;-56
2023/04/16 03:24:33;;;;;;;39.38;19.48;;;8.30;99.90;;;;;;5035362;28;20558;-56
2023/04/16 03:27:00;;;;;;;40.88;20.23;;;8.30;99.90;;;;;;5037231;28;20032;-56
2023/04/16 03:29:26;;;;;;;45.28;20.88;;;8.40;99.90;;;;;;5033997;28;20457;-56
2023/04/16 03:31:51;;;;;;;37.30;20.13;;;8.40;99.90;;;;;;5036680;28;20141;-56
2023/04/16 03:34:17;;;;;;;45.75;20.52;;;8.30;99.90;;;;;;5035687;28;20041;-56
2023/04/16 03:36:42;;;;;;;40.15;20.80;;;8.20;99.90;;;;;;5033533;28;20451;-56
2023/04/16 03:39:08;;;;;;;45.50;20.80;;;8.30;99.90;;;;;;5033243;28;20454;-56
2023/04/16 03:41:33;;;;;;;42.33;21.58;;;8.40;99.90;;;;;;5035828;28;20064;-56
2023/04/16 03:43:59;;;;;;;39.70;21.23;;;8.40;99.90;;;;;;5036167;28;20045;-56
2023/04/16 03:46:25;;;;;;;42.13;21.27;;;8.40;99.90;;;;;;5032392;28;20149;-56
2023/04/16 03:48:50;;;;;;;37.90;20.25;;;8.40;99.90;;;;;;5037833;28;20421;-56
2023/04/16 03:51:16;;;;;;;41.78;20.50;;;8.40;99.90;;;;;;5031355;28;20045;-56
2023/04/16 03:53:41;;;;;;;44.30;22.42;;;8.40;99.90;;;;;;5033488;28;20067;-56
2023/04/16 03:56:07;;;;;;;44.55;22.90;;;8.30;99.90;;;;;;5034508;28;20037;-56
2023/04/16 03:58:32;;;;;;;43.28;21.80;;;8.40;99.90;;;;;;5036703;28;20740;-56
2023/04/16 04:00:58;;;;;;;45.20;22.42;;;8.40;99.90;;;;;;5036764;28;20099;-56
2023/04/16 04:03:24;;;;;;;43.00;22.08;;;8.30;99.90;;;;;;5032663;28;20132;-56
2023/04/16 04:05:50;;;;;;;41.38;21.77;;;8.40;99.90;;;;;;5035407;28;20147;-58
2023/04/16 04:08:16;;;;;;;42.75;21.95;;;8.40;99.90;;;;;;5033519;28;20052;-56
2023/04/16 04:10:41;;;;;;;39.92;21.23;;;8.40;99.90;;;;;;5039483;28;20472;-56
2023/04/16 04:13:07;;;;;;;42.08;21.08;;;8.40;99.90;;;;;;5029406;28;20036;-56
2023/04/16 04:15:32;;;;;;;46.28;22.73;;;8.30;99.90;;;;;;5032572;28;20060;-56
2023/04/16 04:17:58;;;;;;;44.28;22.35;;;8.50;99.90;;;;;;5033714;28;20102;-56
2023/04/16 04:20:24;;;;;;;45.33;22.35;;;8.40;99.90;;;;;;5033419;28;20056;-56
2023/04/16 04:22:50;;;;;;;44.17;22.98;;;8.40;99.90;;;;;;5032492;28;20087;-56
2023/04/16 04:25:16;;;;;;;44.55;22.50;;;8.30;99.90;;;;;;5034247;28;20110;-56
2023/04/16 04:27:42;;;;;;;43.22;21.70;;;8.30;99.90;;;;;;5032752;28;20084;-56
2023/04/16 04:30:09;;;;;;;42.28;22.02;;;8.40;99.90;;;;;;5033350;28;20032;-56
2023/04/16 04:32:34;;;;;;;40.90;21.58;;;8.30;99.90;;;;;;5034571;28;20098;-56
2023/04/16 04:35:01;;;;;;;46.95;23.02;;;8.50;99.90;;;;;;5030728;28;20810;-56
2023/04/16 04:37:27;;;;;;;43.45;22.30;;;8.40;99.90;;;;;;5034768;28;20082;-56
2023/04/16 04:39:53;;;;;;;45.45;22.95;;;8.30;99.90;;;;;;5034376;28;20529;-56
2023/04/16 04:42:20;;;;;;;49.28;23.95;;;8.40;99.90;;;;;;5032289;28;20227;-56
2023/04/16 04:44:46;;;;;;;41.58;23.17;;;8.50;99.90;;;;;;5033519;28;20124;-56
2023/04/16 04:47:12;;;;;;;49.22;22.00;;;8.40;99.90;;;;;;5036240;28;20063;-56
2023/04/16 04:49:38;;;;;;;42.95;23.45;;;8.40;99.90;;;;;;5048823;28;20037;-56
2023/04/16 04:52:04;;;;;;;48.40;23.25;;;8.40;99.90;;;;;;5033959;28;20032;-56
2023/04/16 04:54:31;;;;;;;45.83;23.80;;;8.40;99.90;;;;;;5034084;28;20152;-56
2023/04/16 04:56:57;;;;;;;49.75;23.25;;;8.50;99.90;;;;;;5028774;28;20041;-56
2023/04/16 04:59:23;;;;;;;50.35;24.88;;;8.30;99.90;;;;;;5031596;28;20041;-56
2023/04/16 05:01:49;;;;;;;48.75;24.25;;;8.30;99.90;;;;;;5033225;28;20572;-56
2023/04/16 05:04:15;;;;;;;51.72;25.17;;;8.30;99.90;;;;;;5034102;28;20132;-56
2023/04/16 05:06:41;;;;;;;49.65;25.30;;;8.40;99.90;;;;;;5032947;28;20155;-56
2023/04/16 05:09:10;;;;;;;53.80;24.60;;;8.40;99.90;;;;;;5033061;28;20041;-56
2023/04/16 05:11:40;;;;;;;50.17;24.50;;;8.40;99.90;;;;;;5032158;28;20126;-56
2023/04/16 05:14:06;;;;;;;46.47;24.27;;;8.50;99.90;;;;;;5032329;28;20037;-56
2023/04/16 05:16:31;;;;;;;52.20;23.30;;;8.30;99.90;;;;;;5037563;28;20047;-56
2023/04/16 05:18:57;;;;;;;52.65;22.70;;;8.40;99.90;;;;;;5034736;28;20037;-56
2023/04/16 05:21:23;;;;;;;56.72;26.05;;;8.30;99.90;;;;;;5033348;28;20037;-56
2023/04/16 05:23:49;;;;;;;55.47;25.17;;;8.40;99.90;;;;;;5033325;28;20037;-56
2023/04/16 05:26:15;;;;;;;57.17;26.17;;;8.40;99.90;;;;;;5033075;28;20998;-56
2023/04/16 05:28:40;;;;;;;52.53;24.58;;;8.40;99.90;;;;;;5031018;28;20068;-56
2023/04/16 05:31:06;;;;;;;58.60;26.50;;;8.40;99.90;;;;;;5033097;28;20098;-56
2023/04/16 05:33:31;;;;;;;55.55;26.33;;;8.30;99.90;;;;;;5032538;28;20033;-56
2023/04/16 05:35:57;;;;;;;53.35;26.38;;;8.50;99.90;;;;;;5031969;28;20033;-56
2023/04/16 05:38:22;;;;;;;56.60;26.27;;;8.40;99.90;;;;;;5033226;28;20043;-56
2023/04/16 05:40:48;;;;;;;57.28;25.80;;;8.30;99.90;;;;;;5031064;28;20480;-56
2023/04/16 05:43:14;;;;;;;57.67;27.02;;;8.40;99.90;;;;;;5031567;28;20025;-56
2023/04/16 05:45:40;;;;;;;55.70;25.73;;;8.40;99.90;;;;;;5029106;28;20930;-57
2023/04/16 05:48:08;;;;;;;55.03;26.50;;;8.40;99.90;;;;;;5030166;28;20036;-56
2023/04/16 05:50:34;;;;;;;57.50;27.90;;;8.40;99.90;;;;;;5031962;28;20500;-56
2023/04/16 05:53:02;;;;;;;61.55;28.10;;;8.40;99.90;;;;;;5034011;28;20036;-56
2023/04/16 05:55:27;;;;;;;55.45;26.92;;;8.50;99.90;;;;;;5032381;28;20032;-56
2023/04/16 05:57:53;;;;;;;61.25;29.08;;;8.50;99.90;;;;;;5031667;28;20036;-56
2023/04/16 06:00:18;;;;;;;59.58;29.05;;;8.40;99.90;;;;;;5032389;28;20087;-56
2023/04/16 06:02:44;;;;;;;56.88;27.83;;;8.40;99.90;;;;;;5030501;28;20040;-56
2023/04/16 06:05:10;;;;;;;64.15;29.33;;;8.50;99.90;;;;;;5032816;28;20077;-56
2023/04/16 06:07:35;;;;;;;64.65;29.20;;;8.40;99.90;;;;;;5031674;28;20733;-56
2023/04/16 06:10:01;;;;;;;67.45;30.33;;;8.40;99.90;;;;;;5033132;28;20635;-56
2023/04/16 06:12:26;;;;;;;64.10;30.25;;;8.50;99.90;;;;;;5036858;28;20520;-56
2023/04/16 06:14:52;;;;;;;65.75;31.30;;;8.60;99.90;;;;;;5034233;28;20135;-56
2023/04/16 06:17:18;;;;;;;65.30;31.15;;;8.60;99.90;;;;;;5030583;28;20507;-56
2023/04/16 06:19:44;;;;;;;61.38;29.95;;;8.50;99.90;;;;;;5032245;28;20033;-57
2023/04/16 06:22:09;;;;;;;67.60;29.92;;;8.50;99.90;;;;;;5032181;28;20083;-56
2023/04/16 06:24:35;;;;;;;66.25;29.90;;;9.10;99.90;;;;;;5034135;28;20037;-56
2023/04/16 06:27:01;;;;;;;70.25;30.48;;;8.60;99.90;;;;;;5026006;28;20033;-56
2023/04/16 06:29:27;;;;;;;65.85;30.90;;;8.70;99.90;;;;;;5033566;28;20079;-56
2023/04/16 06:31:53;;;;;;;64.30;32.05;;;8.70;99.90;;;;;;5027161;28;20045;-56
2023/04/16 06:34:19;;;;;;;71.30;32.35;;;8.80;99.90;;;;;;5031140;28;20124;-56
2023/04/16 06:36:45;;;;;;;67.05;29.77;;;8.80;99.90;;;;;;5038254;28;20106;-56
2023/04/16 06:39:10;;;;;;;59.58;29.10;;;8.70;99.90;;;;;;5036916;28;20060;-56
2023/04/16 06:41:36;;;;;;;60.38;30.52;;;8.70;99.90;;;;;;5034378;28;20041;-56
2023/04/16 06:44:01;;;;;;;60.83;29.88;;;8.70;99.90;;;;;;5036396;28;20029;-54
2023/04/16 06:46:27;;;;;;;59.58;30.10;;;8.80;99.90;;;;;;5033769;28;20090;-56
2023/04/16 06:48:53;;;;;;;62.05;30.48;;;8.80;99.90;;;;;;5034215;28;20515;-56
2023/04/16 06:51:18;;;;;;;60.63;31.00;;;8.80;99.90;;;;;;5035411;28;20617;-56
2023/04/16 06:53:44;;;;;;;58.70;29.25;;;8.80;99.90;;;;;;5036693;28;20067;-56
2023/04/16 06:56:10;;;;;;;62.25;30.13;;;8.80;99.90;;;;;;5039367;28;20052;-56
2023/04/16 06:58:35;;;;;;;62.58;29.27;;;8.80;99.90;;;;;;5029295;28;20040;-56
2023/04/16 07:01:01;;;;;;;61.75;30.40;;;8.80;99.90;;;;;;5038963;28;20041;-56
2023/04/16 07:03:27;;;;;;;61.38;29.65;;;8.80;99.90;;;;;;5036822;28;20060;-56
2023/04/16 07:05:52;;;;;;;59.58;28.90;;;8.80;99.90;;;;;;5044382;28;20452;-56
2023/04/16 07:08:18;;;;;;;58.47;29.50;;;8.90;99.90;;;;;;5039861;28;20337;-55
2023/04/16 07:10:44;;;;;;;56.53;28.85;;;8.90;99.90;;;;;;5041977;28;20041;-56
2023/04/16 07:13:09;;;;;;;58.17;29.25;;;9.00;99.90;;;;;;5037320;28;20094;-56
2023/04/16 07:15:35;;;;;;;57.83;29.20;;;9.00;99.90;;;;;;5040902;28;20181;-57
2023/04/16 07:18:01;;;;;;;56.83;28.63;;;9.00;99.90;;;;;;5041232;28;20057;-56
2023/04/16 07:20:26;;;;;;;56.55;28.52;;;9.00;99.90;;;;;;5038866;28;20095;-56
2023/04/16 07:22:52;;;;;;;52.90;28.75;;;9.00;99.90;;;;;;5040043;28;20033;-56
2023/04/16 07:25:17;;;;;;;50.72;27.65;;;9.00;99.90;;;;;;5033823;28;20397;-56
2023/04/16 07:27:43;;;;;;;52.28;28.85;;;9.10;99.90;;;;;;5038772;28;20025;-57
2023/04/16 07:30:09;;;;;;;53.28;28.45;;;9.10;99.90;;;;;;5039448;28;20412;-56
2023/04/16 07:32:35;;;;;;;50.60;28.42;;;9.10;99.90;;;;;;5042116;28;20042;-57
2023/04/16 07:35:00;;;;;;;50.85;28.70;;;9.10;99.90;;;;;;5038429;28;20049;-57
2023/04/16 07:37:26;;;;;;;48.28;27.35;;;9.30;99.90;;;;;;5035044;28;20041;-58
2023/04/16 07:39:51;;;;;;;51.00;27.52;;;9.30;99.90;;;;;;5038913;28;20132;-58
2023/04/16 07:42:17;;;;;;;50.53;28.08;;;9.30;99.90;;;;;;5040769;28;20064;-58
2023/04/16 07:44:43;;;;;;;51.42;30.10;;;9.30;99.90;;;;;;5037045;28;20481;-59
2023/04/16 07:47:08;;;;;;;47.53;27.98;;;9.20;99.90;;;;;;5036798;28;20048;-58
2023/04/16 07:49:34;;;;;;;52.78;30.85;;;9.30;99.90;;;;;;5038942;28;20382;-58
2023/04/16 07:52:00;;;;;;;58.13;31.83;;;9.30;99.90;;;;;;5038797;28;20036;-58
2023/04/16 07:54:26;;;;;;;49.92;29.83;;;9.40;99.90;;;;;;5036438;28;20128;-59
2023/04/16 07:56:51;;;;;;;57.10;31.33;;;9.40;99.90;;;;;;5039142;28;20047;-59
2023/04/16 07:59:17;;;;;;;54.58;30.67;;;9.50;99.90;;;;;;5037062;28;20431;-59
2023/04/16 08:01:43;;;;;;;53.67;30.63;;;9.60;99.90;;;;;;5041370;28;20459;-59
2023/04/16 08:04:08;;;;;;;51.83;30.23;;;9.80;99.90;;;;;;5035859;28;20041;-59
2023/04/16 08:06:34;;;;;;;50.38;28.55;;;9.80;99.90;;;;;;5037682;28;20131;-59
2023/04/16 08:09:00;;;;;;;47.45;28.58;;;9.70;99.90;;;;;;5036663;28;20124;-59
2023/04/16 08:11:25;;;;;;;52.00;28.98;;;9.80;99.90;;;;;;5038280;28;20041;-59
2023/04/16 08:13:51;;;;;;;51.80;29.02;;;9.80;99.90;;;;;;5035150;28;20060;-59
2023/04/16 08:16:16;;;;;;;49.30;28.83;;;9.70;99.90;;;;;;5035879;28;20025;-59
2023/04/16 08:18:42;;;;;;;49.50;29.00;;;9.90;99.90;;;;;;5037219;28;20075;-59
2023/04/16 08:21:07;;;;;;;50.22;28.52;;;9.90;99.90;;;;;;5034105;28;20034;-59
2023/04/16 08:23:33;;;;;;;46.10;27.30;;;9.80;99.90;;;;;;5040002;28;20029;-59
2023/04/16 08:26:00;;;;;;;51.97;29.00;;;9.80;99.90;;;;;;5036674;28;20071;-59
2023/04/16 08:28:26;;;;;;;49.47;27.83;;;9.80;99.90;;;;;;5035769;28;20492;-59
2023/04/16 08:30:52;;;;;;;45.40;27.65;;;9.90;99.90;;;;;;5037853;28;20071;-56
2023/04/16 08:33:18;;;;;;;46.67;27.13;;;10.00;99.90;;;;;;5037996;28;20180;-56
2023/04/16 08:35:43;;;;;;;47.20;27.30;;;9.80;99.90;;;;;;5034314;28;20425;-56
2023/04/16 08:38:09;;;;;;;47.05;26.40;;;9.80;99.90;;;;;;5036926;28;20029;-56
2023/04/16 08:40:38;;;;;;;45.72;27.50;;;9.80;99.90;;;;;;5035721;28;20029;-56
2023/04/16 08:43:10;;;;;;;47.25;28.67;;;9.90;99.90;;;;;;5034722;28;20143;-56
2023/04/16 08:45:37;;;;;;;47.15;27.63;;;10.00;99.90;;;;;;5037183;28;20072;-56
2023/04/16 08:48:04;;;;;;;47.67;28.42;;;10.20;99.90;;;;;;5036223;28;20029;-56
2023/04/16 08:50:33;;;;;;;47.13;28.33;;;10.30;99.90;;;;;;5015919;28;20139;-56
2023/04/16 08:53:03;;;;;;;46.60;28.67;;;10.40;99.90;;;;;;5034539;28;20044;-56
2023/04/16 08:55:39;;;;;;;46.05;27.33;;;10.50;99.90;;;;;;5038357;28;20044;-56
2023/04/16 08:58:13;;;;;;;43.97;26.27;;;10.60;99.90;;;;;;5035490;28;20069;-56
2023/04/16 09:00:40;;;;;;;42.33;26.45;;;10.60;99.90;;;;;;5037031;28;20476;-56
2023/04/16 09:03:06;;;;;;;45.63;26.70;;;10.70;99.90;;;;;;5036972;28;20091;-56
2023/04/16 09:05:32;;;;;;;40.83;24.48;;;11.00;99.90;;;;;;5037802;28;20048;-56
2023/04/16 09:07:58;;;;;;;40.63;24.02;;;11.10;99.90;;;;;;5040710;28;20095;-56
2023/04/16 09:10:25;;;;;;;39.35;24.10;;;11.00;99.90;;;;;;5034383;28;20041;-56
2023/04/16 09:12:51;;;;;;;36.28;24.73;;;11.00;99.90;;;;;;5035948;28;20657;-56
2023/04/16 09:15:19;;;;;;;36.80;21.95;;;10.80;99.90;;;;;;5023525;28;20090;-56
2023/04/16 09:17:44;;;;;;;36.20;23.05;;;10.90;99.90;;;;;;5040587;28;20037;-56
2023/04/16 09:20:11;;;;;;;35.03;21.95;;;11.20;99.90;;;;;;5037097;28;20055;-56
2023/04/16 09:22:38;;;;;;;34.40;21.88;;;11.10;99.90;;;;;;5038193;28;20032;-56
2023/04/16 09:25:05;;;;;;;35.00;22.50;;;11.10;99.90;;;;;;5038437;28;20041;-56
2023/04/16 09:27:31;;;;;;;35.60;22.75;;;11.10;99.90;;;;;;5035885;28;20364;-56
2023/04/16 09:29:57;;;;;;;33.65;22.10;;;11.40;99.90;;;;;;5039162;28;20045;-56
2023/04/16 09:32:28;;;;;;;36.08;22.27;;;11.20;99.90;;;;;;5035598;28;20126;-56
2023/04/16 09:34:58;;;;;;;32.38;20.98;;;11.20;99.90;;;;;;5032880;28;20097;-56
2023/04/16 09:37:28;;;;;;;34.72;22.27;;;11.20;99.90;;;;;;5035593;28;20353;-55
2023/04/16 09:39:58;;;;;;;38.28;19.52;;;11.30;99.90;;;;;;5036248;28;20117;-55
2023/04/16 09:42:26;;;;;;;33.28;21.58;;;11.20;99.90;;;;;;5034590;28;20055;-55
2023/04/16 09:44:52;;;;;;;37.85;22.55;;;11.30;99.90;;;;;;5034565;28;20477;-55
2023/04/16 09:47:18;;;;;;;36.47;22.33;;;11.40;99.90;;;;;;5033382;28;20114;-55
2023/04/16 09:49:45;;;;;;;35.72;22.23;;;11.50;99.90;;;;;;5035926;28;20144;-56
2023/04/16 09:52:20;;;;;;;32.45;21.67;;;11.40;99.90;;;;;;5034488;28;20042;-55
2023/04/16 09:54:49;;;;;;;34.97;21.38;;;11.60;99.90;;;;;;5033514;28;20241;-55
2023/04/16 09:57:36;;;;;;;35.45;23.20;;;11.60;99.90;;;;;;5036905;28;20138;-57
2023/04/16 10:00:08;;;;;;;158.80;112.72;;;11.80;99.90;;;;;;5033807;28;20051;-54
2023/04/16 10:02:37;;;;;;;41.22;26.02;;;11.90;99.90;;;;;;5050027;28;20358;-55
2023/04/16 10:05:03;;;;;;;37.40;22.20;;;12.20;99.90;;;;;;5037495;28;20115;-55
2023/04/16 10:07:32;;;;;;;33.55;21.55;;;12.10;99.90;;;;;;5034911;28;20139;-56
2023/04/16 10:09:58;;;;;;;36.90;20.55;;;12.20;99.90;;;;;;5034806;28;20488;-56
2023/04/16 10:12:23;;;;;;;37.33;22.10;;;12.30;99.90;;;;;;5034751;28;20292;-53
2023/04/16 10:14:49;;;;;;;36.75;21.15;;;12.40;99.90;;;;;;5033411;28;20063;-53
2023/04/16 10:17:17;;;;;;;31.25;20.70;;;12.50;99.90;;;;;;5035607;28;20178;-54
2023/04/16 10:19:43;;;;;;;30.17;20.00;;;12.40;99.90;;;;;;5038174;28;20049;-53
2023/04/16 10:22:09;;;;;;;33.85;20.42;;;12.20;99.90;;;;;;5034671;28;20412;-52
2023/04/16 10:24:34;;;;;;;32.13;21.00;;;12.30;99.90;;;;;;5036695;28;20645;-52
2023/04/16 10:27:01;;;;;;;34.22;20.40;;;12.50;99.90;;;;;;5036937;28;20040;-55
2023/04/16 10:29:28;;;;;;;28.77;18.67;;;12.60;99.90;;;;;;5038512;28;20126;-55
2023/04/16 10:31:55;;;;;;;26.25;18.05;;;12.70;99.90;;;;;;5035534;28;20040;-55
2023/04/16 10:34:22;;;;;;;31.27;19.05;;;12.70;99.90;;;;;;5040049;28;20041;-55
2023/04/16 10:36:51;;;;;;;25.17;17.52;;;12.60;99.90;;;;;;5042993;28;20463;-55
2023/04/16 10:39:19;;;;;;;23.60;16.88;;;13.00;99.90;;;;;;5040551;28;20041;-55
2023/04/16 10:41:45;;;;;;;26.27;16.92;;;12.90;99.90;;;;;;5040264;28;20445;-55
2023/04/16 10:44:11;;;;;;;29.08;17.98;;;12.90;99.90;;;;;;5039541;28;20079;-55
2023/04/16 10:46:41;;;;;;;28.33;17.85;;;13.10;99.90;;;;;;5038623;28;20059;-56
2023/04/16 10:49:18;;;;;;;24.75;17.88;;;13.30;99.90;;;;;;5039233;28;20469;-56
2023/04/16 10:52:11;;;;;;;25.50;17.38;;;13.20;99.90;;;;;;5037849;28;20469;-55
2023/04/16 10:54:37;;;;;;;25.27;16.70;;;13.20;99.90;;;;;;5036253;28;20816;-56
2023/04/16 10:57:05;;;;;;;25.17;15.48;;;13.10;99.90;;;;;;5035533;28;20698;-55
2023/04/16 10:59:33;;;;;;;23.17;16.58;;;13.10;99.90;;;;;;5038053;28;20407;-56
2023/04/16 11:02:00;;;;;;;26.17;16.80;;;13.10;99.90;;;;;;5034481;28;20041;-56
2023/04/16 11:04:37;;;;;;;25.45;16.10;;;13.10;99.90;;;;;;5033638;28;20053;-56
2023/04/16 11:07:17;;;;;;;22.85;16.77;;;13.10;99.90;;;;;;5031731;28;20337;-56
2023/04/16 11:09:59;;;;;;;26.13;17.60;;;13.20;99.90;;;;;;5035696;28;20486;-55
2023/04/16 11:12:31;;;;;;;27.52;17.55;;;13.40;99.90;;;;;;5033577;28;20153;-56
2023/04/16 11:15:05;;;;;;;25.70;16.17;;;13.30;99.90;;;;;;5031372;28;20488;-55
2023/04/16 11:17:42;;;;;;;24.10;16.30;;;13.30;99.90;;;;;;5030526;28;20049;-55
2023/04/16 11:20:19;;;;;;;29.23;17.73;;;13.10;99.90;;;;;;5030563;28;20071;-55
2023/04/16 11:22:45;;;;;;;22.30;16.63;;;13.20;99.90;;;;;;5040710;28;20033;-56
2023/04/16 11:25:11;;;;;;;19.70;14.90;;;13.40;99.90;;;;;;5036039;28;20098;-55
2023/04/16 11:27:37;;;;;;;17.35;11.40;;;13.40;99.90;;;;;;5037598;28;20124;-55
2023/04/16 11:30:08;;;;;;;16.77;12.07;;;13.50;99.90;;;;;;5038954;28;20047;-54
2023/04/16 11:32:35;;;;;;;16.23;12.05;;;13.70;99.90;;;;;;5041483;28;20473;-55
2023/04/16 11:35:03;;;;;;;17.00;12.93;;;13.60;99.90;;;;;;5037166;28;20102;-56
2023/04/16 11:37:37;;;;;;;22.42;14.70;;;13.70;99.90;;;;;;5034200;28;20530;-56
2023/04/16 11:40:08;;;;;;;19.65;14.75;;;13.90;99.90;;;;;;5037476;28;20132;-56
2023/04/16 11:42:39;;;;;;;20.88;15.52;;;13.60;99.90;;;;;;5038743;28;20140;-55
2023/04/16 11:45:06;;;;;;;19.25;14.52;;;13.40;99.90;;;;;;5037973;28;20041;-56
2023/04/16 11:47:50;;;;;;;19.55;14.48;;;13.70;99.90;;;;;;5036500;28;20044;-56
2023/04/16 11:50:24;;;;;;;18.50;14.52;;;13.80;99.90;;;;;;5034819;28;20485;-55
2023/04/16 11:52:52;;;;;;;20.23;14.38;;;13.80;99.90;;;;;;5036134;28;20369;-56
2023/04/16 11:55:18;;;;;;;22.05;15.00;;;14.00;99.90;;;;;;5038804;28;20437;-56
2023/04/16 11:57:44;;;;;;;15.80;12.90;;;13.90;99.90;;;;;;5050962;28;20036;-55
2023/04/16 12:00:12;;;;;;;17.15;13.52;;;14.00;99.90;;;;;;5037468;28;20041;-55
2023/04/16 12:02:45;;;;;;;20.77;13.35;;;13.90;99.90;;;;;;5033747;28;20036;-55
2023/04/16 12:05:31;;;;;;;16.80;12.60;;;13.70;99.90;;;;;;5032868;28;20044;-56
2023/04/16 12:07:58;;;;;;;16.77;12.38;;;13.90;99.90;;;;;;5033793;28;20700;-56
2023/04/16 12:10:24;;;;;;;18.25;13.18;;;14.00;99.90;;;;;;5039574;28;20074;-56
2023/04/16 12:12:50;;;;;;;17.30;12.52;;;14.20;99.90;;;;;;5040875;28;20075;-56
2023/04/16 12:15:16;;;;;;;18.45;11.80;;;14.00;99.90;;;;;;5036319;28;20073;-55
2023/04/16 12:17:42;;;;;;;16.70;11.45;;;14.10;99.90;;;;;;5038199;28;20075;-56
2023/04/16 12:20:10;;;;;;;16.40;12.85;;;13.90;99.90;;;;;;5036177;28;20069;-54
2023/04/16 12:22:43;;;;;;;16.60;12.68;;;13.90;99.90;;;;;;5037057;28;20071;-54
2023/04/16 12:25:14;;;;;;;16.80;13.70;;;14.10;99.90;;;;;;5034486;28;20037;-53
2023/04/16 12:27:51;;;;;;;16.63;13.23;;;14.10;99.90;;;;;;5035645;28;20047;-54
2023/04/16 12:30:20;;;;;;;16.85;13.10;;;14.00;99.90;;;;;;5034332;28;20377;-54